Time;durP1;ratioP1;P1;durP2;ratioP2;P2;SDS_P1;SDS_P2;PMS_P1;PMS_P2;Temp;Humidity;BMP_temperature;BMP_pressure;BME280_temperature;BME280_humidity;BME280_pressure;Samples;Min_cycle;Max_cycle;Signal;HPM_P1;HPM_P2
2023/04/07 00:00:57;;;;;;;;;1.67;0.00;;;;;11.43;57.13;101370.69;4997408;28;45427;-51
2023/04/07 00:03:23;;;;;;;;;1.67;1.33;;;;;11.39;58.59;101380.75;4997547;28;45612;-48
2023/04/07 00:05:48;;;;;;;;;1.00;0.67;;;;;11.39;58.31;101386.09;4997771;28;45399;-51
2023/04/07 00:08:14;;;;;;;;;1.33;1.00;;;;;11.24;59.31;101360.78;4997289;28;46122;-48
2023/04/07 00:10:39;;;;;;;;;1.33;1.00;;;;;11.36;58.33;101380.19;4997433;28;45289;-45
2023/04/07 00:13:05;;;;;;;;;3.00;1.00;;;;;11.33;59.25;101380.44;4997315;28;45209;-48
2023/04/07 00:15:30;;;;;;;;;2.00;0.67;;;;;11.31;58.84;101377.09;4997337;28;45524;-45
2023/04/07 00:17:56;;;;;;;;;0.67;0.00;;;;;11.29;59.38;101379.88;4997452;28;46175;-47
2023/04/07 00:20:22;;;;;;;;;2.00;2.00;;;;;11.26;59.16;101371.34;4997319;28;45192;-47
2023/04/07 00:22:47;;;;;;;;;2.00;1.00;;;;;11.29;59.19;101385.19;4997143;28;45375;-46
2023/04/07 00:25:12;;;;;;;;;6.67;1.00;;;;;11.30;59.86;101388.72;4997331;28;45345;-44
2023/04/07 00:27:38;;;;;;;;;2.33;0.00;;;;;11.27;59.97;101376.50;5000522;28;45837;-45
2023/04/07 00:30:04;;;;;;;;;3.00;1.00;;;;;11.29;59.90;101384.34;5000706;28;45386;-50
2023/04/07 00:32:29;;;;;;;;;3.00;1.00;;;;;11.16;60.06;101357.97;5000786;28;45356;-45
2023/04/07 00:34:55;;;;;;;;;3.00;2.00;;;;;11.23;59.65;101370.59;5000757;28;45416;-44
2023/04/07 00:37:20;;;;;;;;;2.00;2.00;;;;;11.14;59.44;101358.13;5000572;28;46870;-48
2023/04/07 00:39:45;;;;;;;;;2.33;0.00;;;;;11.19;60.12;101366.53;5000133;28;45437;-47
2023/04/07 00:42:11;;;;;;;;;3.00;1.33;;;;;11.14;60.17;101360.78;5000434;28;45345;-48
2023/04/07 00:44:36;;;;;;;;;3.67;3.00;;;;;11.14;60.32;101363.44;5000816;28;45439;-42
2023/04/07 00:47:02;;;;;;;;;2.33;1.00;;;;;11.09;60.13;101356.84;5000330;28;46146;-43
2023/04/07 00:49:27;;;;;;;;;4.00;1.00;;;;;11.11;60.65;101354.88;5000494;28;45421;-43
2023/04/07 00:51:54;;;;;;;;;1.00;1.00;;;;;11.09;60.52;101359.50;5000480;28;45350;-45
2023/04/07 00:54:21;;;;;;;;;3.67;2.67;;;;;11.04;60.64;101343.94;5000654;28;45403;-43
2023/04/07 00:56:47;;;;;;;;;3.00;1.00;;;;;11.08;61.00;101353.34;5000026;28;45444;-44
2023/04/07 00:59:12;;;;;;;;;1.33;1.33;;;;;11.06;61.20;101349.97;5000137;28;45428;-44
2023/04/07 01:01:47;;;;;;;;;2.00;1.00;;;;;11.08;61.08;101360.47;5000401;28;45282;-43
2023/04/07 01:04:44;;;;;;;;;2.00;2.00;;;;;11.07;61.01;101358.78;5000629;28;45306;-44
2023/04/07 01:07:22;;;;;;;;;4.33;1.00;;;;;11.02;60.33;101355.69;4939195;28;45431;-44
2023/04/07 01:10:02;;;;;;;;;2.00;1.00;;;;;11.01;60.91;101354.00;4939184;28;45338;-44
2023/04/07 01:12:42;;;;;;;;;1.00;1.00;;;;;11.00;61.33;101353.16;4939498;28;45349;-45
2023/04/07 01:15:10;;;;;;;;;1.33;1.33;;;;;10.99;61.34;101354.97;4939494;28;45293;-45
2023/04/07 01:17:41;;;;;;;;;0.67;0.67;;;;;10.84;60.36;101327.03;4939228;28;46266;-44
2023/04/07 01:20:11;;;;;;;;;2.00;2.00;;;;;10.94;60.93;101356.34;4939145;28;45360;-44
2023/04/07 01:22:50;;;;;;;;;1.67;1.00;;;;;10.91;60.99;101353.94;4939272;28;45490;-45
2023/04/07 01:25:48;;;;;;;;;4.00;1.33;;;;;10.88;61.52;101349.75;4939529;28;45686;-45
2023/04/07 01:28:23;;;;;;;;;1.00;1.00;;;;;10.88;62.50;101352.41;4938962;28;46164;-45
2023/04/07 01:30:50;;;;;;;;;4.33;1.00;;;;;10.86;62.11;101340.22;4939271;28;45403;-45
2023/04/07 01:33:17;;;;;;;;;1.67;1.00;;;;;10.89;62.38;101345.28;4939222;28;45510;-43
2023/04/07 01:35:44;;;;;;;;;1.00;1.00;;;;;10.89;62.68;101346.13;4939374;28;45427;-45
2023/04/07 01:38:11;;;;;;;;;1.67;1.33;;;;;10.94;62.70;101354.53;4938748;28;46378;-44
2023/04/07 01:40:38;;;;;;;;;1.67;1.00;;;;;10.94;62.65;101353.69;4939141;28;45301;-46
2023/04/07 01:43:05;;;;;;;;;5.00;1.00;;;;;10.97;62.92;101345.44;4957023;28;45403;-44
2023/04/07 01:45:34;;;;;;;;;3.00;1.00;;;;;10.99;62.17;101360.28;4999800;28;45275;-48
2023/04/07 01:48:04;;;;;;;;;3.33;1.00;;;;;10.95;61.79;101350.03;4999494;28;46573;-45
2023/04/07 01:50:30;;;;;;;;;3.00;1.00;;;;;11.01;62.50;101354.00;4999563;28;45381;-44
2023/04/07 01:52:56;;;;;;;;;6.67;2.00;;;;;11.04;62.25;101356.38;4999571;28;45183;-45
2023/04/07 01:55:22;;;;;;;;;2.67;0.67;;;;;11.04;61.97;101354.59;5000049;28;45463;-46
2023/04/07 01:57:47;;;;;;;;;1.00;1.00;;;;;11.08;62.19;101353.34;4999644;28;45823;-44
2023/04/07 02:00:13;;;;;;;;;3.00;3.00;;;;;11.08;62.36;101352.47;4999143;28;47121;-44
2023/04/07 02:02:43;;;;;;;;;6.33;3.33;;;;;11.10;62.34;101355.84;4999499;28;45357;-45
2023/04/07 02:05:13;;;;;;;;;2.00;2.00;;;;;11.10;62.19;101351.38;4999569;28;45236;-44
2023/04/07 02:07:45;;;;;;;;;3.00;1.67;;;;;11.15;62.54;101356.28;4999227;28;46264;-44
2023/04/07 02:10:13;;;;;;;;;1.00;1.00;;;;;11.16;62.40;101363.28;4999300;28;45171;-45
2023/04/07 02:12:40;;;;;;;;;2.67;1.00;;;;;11.15;62.30;101361.63;4999495;28;45361;-45
2023/04/07 02:15:08;;;;;;;;;2.00;1.00;;;;;11.04;61.79;101343.94;4999330;28;45628;-45
2023/04/07 02:17:36;;;;;;;;;6.00;3.00;;;;;11.13;62.42;101361.75;4997982;28;46327;-47
2023/04/07 02:20:03;;;;;;;;;5.33;2.33;;;;;11.06;62.67;101355.28;4999147;28;45533;-45
2023/04/07 02:22:29;;;;;;;;;4.00;2.00;;;;;11.08;62.31;101361.34;4981375;28;45484;-45
2023/04/07 02:24:54;;;;;;;;;2.00;2.00;;;;;11.03;62.35;101358.19;4999429;28;45372;-44
2023/04/07 02:27:20;;;;;;;;;3.67;1.00;;;;;11.03;62.65;101357.38;4998707;28;46297;-45
2023/04/07 02:29:45;;;;;;;;;5.00;2.00;;;;;11.05;62.85;101361.59;4998956;28;45309;-45
2023/04/07 02:32:10;;;;;;;;;5.00;2.33;;;;;11.11;62.82;101369.03;4999158;28;45471;-44
2023/04/07 02:34:36;;;;;;;;;6.00;4.33;;;;;11.16;62.51;101368.63;4999126;28;45451;-44
2023/04/07 02:37:01;;;;;;;;;4.00;2.00;;;;;11.16;62.14;101360.63;4981143;28;48715;-45
2023/04/07 02:39:26;;;;;;;;;2.33;2.00;;;;;11.18;62.82;101364.84;4998768;28;45303;-44
2023/04/07 02:41:52;;;;;;;;;5.67;3.00;;;;;11.22;62.52;101368.94;4998664;28;45561;-45
2023/04/07 02:44:17;;;;;;;;;4.00;3.00;;;;;11.26;62.79;101368.66;4999027;28;45294;-45
2023/04/07 02:46:42;;;;;;;;;2.00;2.00;;;;;11.29;62.71;101368.38;4998286;28;46275;-45
2023/04/07 02:49:08;;;;;;;;;2.33;2.33;;;;;11.33;62.26;101362.63;4998086;28;45202;-45
2023/04/07 02:51:33;;;;;;;;;5.33;3.00;;;;;11.32;62.36;101355.63;4998697;28;45295;-44
2023/04/07 02:53:59;;;;;;;;;2.00;2.00;;;;;11.27;62.96;101354.38;4999013;28;45350;-44
2023/04/07 02:56:24;;;;;;;;;3.67;1.33;;;;;11.21;63.20;101348.63;4998578;28;45509;-45
2023/04/07 02:58:50;;;;;;;;;8.00;3.00;;;;;11.17;63.17;101349.88;4998491;28;45297;-44
2023/04/07 03:01:15;;;;;;;;;6.00;3.00;;;;;11.13;63.37;101351.09;4998414;28;45333;-44
2023/04/07 03:03:43;;;;;;;;;3.00;2.00;;;;;11.09;63.52;101352.34;4998654;28;45366;-44
2023/04/07 03:06:09;;;;;;;;;3.00;3.00;;;;;11.06;63.66;101349.13;4998222;28;47044;-44
2023/04/07 03:08:34;;;;;;;;;6.00;2.67;;;;;11.02;63.94;101355.69;4998327;28;45498;-44
2023/04/07 03:11:00;;;;;;;;;3.33;2.00;;;;;10.98;64.12;101347.97;4998335;28;45340;-44
2023/04/07 03:13:25;;;;;;;;;8.67;3.00;;;;;10.95;64.29;101355.38;4997724;28;45642;-44
2023/04/07 03:15:50;;;;;;;;;6.33;3.00;;;;;10.88;64.40;101340.94;4980134;28;47920;-44
2023/04/07 03:18:16;;;;;;;;;5.67;3.00;;;;;10.88;64.32;101354.25;4998320;28;45330;-45
2023/04/07 03:20:43;;;;;;;;;3.00;3.00;;;;;10.85;64.49;101350.00;4998417;28;45359;-44
2023/04/07 03:23:08;;;;;;;;;6.00;3.67;;;;;10.72;64.61;101341.41;4998120;28;45203;-45
2023/04/07 03:25:34;;;;;;;;;3.00;1.67;;;;;10.66;64.57;101329.50;4997838;28;46152;-44
2023/04/07 03:28:00;;;;;;;;;4.67;1.67;;;;;10.78;64.75;101348.84;4998022;28;45198;-46
2023/04/07 03:30:26;;;;;;;;;3.00;3.00;;;;;10.73;64.53;101351.91;4998082;28;46322;-43
2023/04/07 03:32:51;;;;;;;;;4.67;3.00;;;;;10.69;64.65;101353.16;4998139;28;45389;-44
2023/04/07 03:35:17;;;;;;;;;6.67;3.00;;;;;10.67;65.23;101357.78;4997568;28;45437;-44
2023/04/07 03:37:42;;;;;;;;;5.33;2.00;;;;;10.64;65.33;101358.03;4998012;28;45467;-45
2023/04/07 03:40:08;;;;;;;;;2.00;2.00;;;;;10.63;65.23;101364.34;4998024;28;45487;-43
2023/04/07 03:42:33;;;;;;;;;7.00;6.00;;;;;10.57;65.43;101364.84;4997979;28;45303;-42
2023/04/07 03:44:58;;;;;;;;;8.00;2.33;;;;;10.57;65.59;101364.00;4997812;28;45409;-45
2023/04/07 03:47:24;;;;;;;;;4.67;3.67;;;;;10.52;65.34;101360.91;4997593;28;45506;-44
2023/04/07 03:49:49;;;;;;;;;17.67;4.67;;;;;10.52;65.50;101366.22;4997962;28;45311;-45
2023/04/07 03:52:15;;;;;;;;;5.67;5.67;;;;;10.45;65.26;101352.63;4997936;28;45379;-44
2023/04/07 03:54:41;;;;;;;;;3.00;1.67;;;;;10.32;65.64;101346.63;4997539;28;46307;-43
2023/04/07 03:57:06;;;;;;;;;10.33;5.00;;;;;10.40;65.59;101360.97;4997497;28;45493;-43
2023/04/07 03:59:32;;;;;;;;;3.67;3.00;;;;;10.39;66.09;101369.09;4997533;28;45372;-49
2023/04/07 04:01:57;;;;;;;;;3.00;2.00;;;;;10.37;65.93;101366.56;4996856;28;45376;-45
2023/04/07 04:04:23;;;;;;;;;3.33;3.33;;;;;10.31;66.00;101352.94;4997543;28;45209;-44
2023/04/07 04:06:49;;;;;;;;;7.00;3.00;;;;;10.34;66.29;101371.31;4997361;28;45503;-44
2023/04/07 04:09:15;;;;;;;;;5.00;2.00;;;;;10.31;66.36;101363.56;4997493;28;45436;-47
2023/04/07 04:11:40;;;;;;;;;3.00;3.00;;;;;10.28;66.60;101361.16;4997511;28;45404;-44
2023/04/07 04:14:05;;;;;;;;;7.00;3.00;;;;;10.29;66.22;101366.38;4997390;28;46133;-45
2023/04/07 04:16:31;;;;;;;;;7.00;5.33;;;;;10.27;66.66;101370.97;4997493;28;45239;-45
2023/04/07 04:18:56;;;;;;;;;9.67;3.00;;;;;10.23;66.22;101367.69;4997635;28;45242;-44
2023/04/07 04:21:21;;;;;;;;;2.00;2.00;;;;;10.24;66.73;101382.72;4997407;28;45290;-44
2023/04/07 04:23:47;;;;;;;;;5.00;2.67;;;;;10.21;66.45;101382.94;4996906;28;51727;-44
2023/04/07 04:26:12;;;;;;;;;3.00;3.00;;;;;10.19;66.74;101374.22;4997185;28;45277;-45
2023/04/07 04:28:37;;;;;;;;;6.00;5.00;;;;;10.19;66.52;101381.38;4997175;28;45300;-45
2023/04/07 04:31:03;;;;;;;;;7.00;3.00;;;;;10.19;66.81;101395.50;4997290;28;45378;-45
2023/04/07 04:33:29;;;;;;;;;7.33;2.67;;;;;10.18;66.94;101396.47;4997124;28;47102;-46
2023/04/07 04:35:54;;;;;;;;;8.33;3.00;;;;;10.12;66.31;101389.03;4996971;28;45256;-44
2023/04/07 04:38:20;;;;;;;;;3.00;2.00;;;;;10.10;66.62;101384.81;4997076;28;45426;-44
2023/04/07 04:40:45;;;;;;;;;5.33;3.00;;;;;10.12;66.95;101394.34;4997228;28;45504;-46
2023/04/07 04:43:10;;;;;;;;;7.33;3.33;;;;;10.12;66.81;101398.81;4996845;28;45334;-42
2023/04/07 04:45:36;;;;;;;;;2.67;2.67;;;;;10.09;66.99;101399.91;4996787;28;45420;-43
2023/04/07 04:48:01;;;;;;;;;7.00;2.00;;;;;10.06;66.01;101394.00;4996890;28;45675;-43
2023/04/07 04:50:26;;;;;;;;;5.67;3.00;;;;;10.04;66.86;101395.97;4997078;28;45318;-43
2023/04/07 04:52:52;;;;;;;;;3.00;3.00;;;;;9.93;66.42;101381.72;4996779;28;46242;-44
2023/04/07 04:55:17;;;;;;;;;5.00;5.00;;;;;10.05;67.17;101397.63;4979097;28;45506;-43
2023/04/07 04:57:43;;;;;;;;;6.00;6.00;;;;;9.93;67.03;101378.22;4996753;28;45334;-45
2023/04/07 05:00:09;;;;;;;;;7.00;3.00;;;;;10.03;66.77;101403.09;4996929;28;45552;-42
2023/04/07 05:02:36;;;;;;;;;5.33;5.00;;;;;10.01;66.86;101402.34;4996326;28;47079;-44
2023/04/07 05:05:01;;;;;;;;;6.67;3.00;;;;;9.99;67.09;101402.50;4978697;28;45188;-44
2023/04/07 05:07:27;;;;;;;;;8.00;7.00;;;;;9.97;66.99;101407.09;4996613;28;45270;-44
2023/04/07 05:09:52;;;;;;;;;7.67;6.00;;;;;9.98;67.22;101410.56;4996771;28;45265;-43
2023/04/07 05:12:17;;;;;;;;;10.00;3.67;;;;;9.98;67.32;101408.75;4997722;28;45342;-44
2023/04/07 05:14:43;;;;;;;;;6.67;5.00;;;;;9.48;67.22;101330.56;4999880;28;45371;-45
2023/04/07 05:17:08;;;;;;;;;11.00;6.00;;;;;9.93;66.99;101402.97;4999569;28;45360;-43
2023/04/07 05:19:34;;;;;;;;;9.67;3.00;;;;;9.90;67.10;101399.72;4982663;28;45288;-44
2023/04/07 05:21:59;;;;;;;;;12.00;7.00;;;;;9.94;67.55;101401.16;4982574;28;46130;-44
2023/04/07 05:24:27;;;;;;;;;5.33;5.00;;;;;9.90;67.44;101394.41;4999838;28;45392;-44
2023/04/07 05:26:53;;;;;;;;;8.00;6.00;;;;;9.96;66.79;101397.44;5000049;28;45333;-44
2023/04/07 05:29:18;;;;;;;;;6.67;5.67;;;;;9.90;67.50;101395.28;4999761;28;45416;-43
2023/04/07 05:31:43;;;;;;;;;10.00;5.00;;;;;9.97;67.32;101403.59;4999851;28;45313;-44
2023/04/07 05:34:09;;;;;;;;;9.33;6.00;;;;;9.98;66.76;101403.44;4999919;28;45309;-47
2023/04/07 05:36:34;;;;;;;;;7.33;5.00;;;;;10.00;67.43;101406.00;5000052;28;45305;-46
2023/04/07 05:39:00;;;;;;;;;7.00;6.67;;;;;10.02;67.29;101408.50;5000278;28;45222;-45
2023/04/07 05:41:25;;;;;;;;;11.00;7.67;;;;;10.04;66.88;101411.91;4999230;28;46305;-47
2023/04/07 05:43:51;;;;;;;;;11.00;7.33;;;;;10.03;67.45;101416.38;4999210;28;45244;-45
2023/04/07 05:46:16;;;;;;;;;13.00;5.67;;;;;10.06;67.50;101412.59;4999344;28;45434;-45
2023/04/07 05:48:42;;;;;;;;;14.67;10.00;;;;;10.05;66.66;101406.44;4981684;28;45396;-45
2023/04/07 05:51:07;;;;;;;;;8.00;5.67;;;;;10.11;66.60;101413.06;4999198;28;46452;-42
2023/04/07 05:53:32;;;;;;;;;10.00;7.33;;;;;10.12;67.00;101412.97;4999101;28;45456;-47
2023/04/07 05:55:58;;;;;;;;;9.00;7.67;;;;;10.13;66.62;101409.31;4999501;28;45458;-45
2023/04/07 05:58:23;;;;;;;;;10.33;8.33;;;;;10.05;67.28;101397.63;4999392;28;45436;-45
2023/04/07 06:00:49;;;;;;;;;13.00;9.33;;;;;10.09;66.86;101396.41;4998946;28;47145;-45
2023/04/07 06:03:14;;;;;;;;;10.00;7.00;;;;;10.11;66.76;101405.09;4999025;28;45433;-49
2023/04/07 06:05:42;;;;;;;;;6.67;6.33;;;;;10.21;66.43;101420.16;4999087;28;45424;-45
2023/04/07 06:08:08;;;;;;;;;9.00;6.00;;;;;10.21;66.94;101414.84;4999320;28;45329;-44
2023/04/07 06:10:34;;;;;;;;;9.67;9.33;;;;;10.27;66.68;101436.59;4998924;28;45253;-45
2023/04/07 06:12:59;;;;;;;;;14.00;7.00;;;;;10.28;66.76;101425.84;4998831;28;45310;-43
2023/04/07 06:15:25;;;;;;;;;10.67;6.67;;;;;10.28;66.40;101430.31;4999128;28;45418;-43
2023/04/07 06:17:50;;;;;;;;;7.33;6.00;;;;;10.28;66.13;101425.84;4999005;28;45366;-45
2023/04/07 06:20:16;;;;;;;;;12.00;8.00;;;;;9.94;66.33;101378.13;4998679;28;46286;-44
2023/04/07 06:22:41;;;;;;;;;11.67;9.33;;;;;10.30;66.41;101434.53;4998688;28;45454;-45
2023/04/07 06:25:07;;;;;;;;;6.00;3.67;;;;;10.33;66.09;101431.63;4997840;28;45365;-45
2023/04/07 06:27:32;;;;;;;;;12.00;9.67;;;;;10.36;66.19;101438.50;4999069;28;45456;-44
2023/04/07 06:29:58;;;;;;;;;12.33;6.33;;;;;10.37;66.15;101443.69;4980815;28;47032;-44
2023/04/07 06:32:24;;;;;;;;;11.33;9.33;;;;;10.40;65.97;101451.41;4998364;28;45373;-45
2023/04/07 06:34:49;;;;;;;;;8.00;7.00;;;;;10.36;65.86;101443.81;4998831;28;45374;-48
2023/04/07 06:37:15;;;;;;;;;11.00;8.00;;;;;10.47;65.73;101457.06;4998720;28;45431;-47
2023/04/07 06:39:41;;;;;;;;;11.00;7.00;;;;;10.55;65.61;101461.75;4998361;28;46437;-47
2023/04/07 06:42:06;;;;;;;;;12.00;7.00;;;;;10.61;65.69;101462.06;4998063;28;45416;-47
2023/04/07 06:44:31;;;;;;;;;9.33;8.33;;;;;10.71;64.95;101468.31;4998728;28;45409;-44
2023/04/07 06:46:57;;;;;;;;;12.00;9.33;;;;;10.76;64.93;101461.75;4998229;28;45604;-45
2023/04/07 06:49:22;;;;;;;;;17.00;8.00;;;;;10.82;64.82;101464.72;4998137;28;46296;-44
2023/04/07 06:51:47;;;;;;;;;10.33;8.00;;;;;10.86;64.58;101475.94;4980767;28;45818;-46
2023/04/07 06:54:13;;;;;;;;;6.00;6.00;;;;;10.87;64.30;101475.84;4998483;28;45404;-43
2023/04/07 06:56:42;;;;;;;;;13.67;9.33;;;;;10.95;64.30;101481.31;4998701;28;45203;-44
2023/04/07 06:59:08;;;;;;;;;11.33;9.67;;;;;11.08;64.04;101490.94;4997910;28;45330;-45
2023/04/07 07:01:33;;;;;;;;;9.67;8.00;;;;;11.11;63.22;101472.03;4998052;28;45509;-46
2023/04/07 07:04:01;;;;;;;;;10.00;10.00;;;;;11.29;63.27;101488.22;4998396;28;45477;-46
2023/04/07 07:06:26;;;;;;;;;10.67;8.67;;;;;11.44;63.08;101489.56;4998286;28;45533;-43
2023/04/07 07:08:52;;;;;;;;;10.67;10.00;;;;;11.65;62.43;101485.03;4997744;28;46079;-46
2023/04/07 07:11:18;;;;;;;;;14.67;8.67;;;;;11.85;62.18;101485.97;4997916;28;45471;-44
2023/04/07 07:13:44;;;;;;;;;16.67;9.00;;;;;12.22;61.02;101479.97;4998021;28;45385;-44
2023/04/07 07:16:09;;;;;;;;;16.00;12.33;;;;;12.72;59.85;101480.66;4998321;28;45973;-49
2023/04/07 07:18:35;;;;;;;;;3.00;3.00;;;;;13.25;58.48;101484.63;4997598;28;47053;-44
2023/04/07 07:21:01;;;;;;;;;16.33;7.33;;;;;13.81;56.80;101482.81;4997766;28;45428;-45
2023/04/07 07:23:26;;;;;;;;;13.67;9.00;;;;;14.34;55.29;101487.41;4997899;28;45459;-46
2023/04/07 07:25:51;;;;;;;;;11.67;8.67;;;;;14.87;54.26;101483.84;4998151;28;45410;-45
2023/04/07 07:28:17;;;;;;;;;9.33;9.00;;;;;15.50;52.93;101486.22;4997552;28;48573;-48
2023/04/07 07:30:42;;;;;;;;;12.33;9.67;;;;;16.07;52.04;101486.44;4997722;28;45348;-43
2023/04/07 07:33:08;;;;;;;;;15.33;11.33;;;;;16.59;50.47;101483.47;4997526;28;45555;-45
2023/04/07 07:35:33;;;;;;;;;17.00;10.00;;;;;17.28;48.81;101491.16;4997813;28;45409;-46
2023/04/07 07:37:59;;;;;;;;;14.33;10.33;;;;;17.90;47.65;101491.25;4997477;28;46161;-44
2023/04/07 07:40:25;;;;;;;;;11.33;10.00;;;;;18.48;46.08;101484.47;4997552;28;45361;-45
2023/04/07 07:42:50;;;;;;;;;12.00;10.33;;;;;18.97;44.54;101484.09;4997448;28;45384;-43
2023/04/07 07:45:18;;;;;;;;;12.67;12.00;;;;;19.44;43.48;101481.03;4997624;28;45340;-45
2023/04/07 07:47:44;;;;;;;;;17.00;11.33;;;;;19.95;42.46;101482.94;4997433;28;45313;-43
2023/04/07 07:50:09;;;;;;;;;12.00;9.67;;;;;20.43;41.10;101484.06;4997315;28;45314;-47
2023/04/07 07:52:35;;;;;;;;;15.67;12.00;;;;;20.93;39.93;101475.97;4997637;28;45334;-45
2023/04/07 07:55:01;;;;;;;;;10.00;9.67;;;;;21.57;39.72;101486.59;4997553;28;45322;-44
2023/04/07 07:57:26;;;;;;;;;15.67;10.00;;;;;22.21;38.26;101490.81;4996834;28;46173;-47
2023/04/07 07:59:52;;;;;;;;;29.00;20.00;;;;;22.93;36.97;101482.97;4997454;28;45315;-45
2023/04/07 08:02:17;;;;;;;;;11.75;11.50;;;;;23.43;35.54;101470.53;4997328;28;45263;-43
2023/04/07 08:04:43;;;;;;;;;14.25;11.50;;;;;24.01;34.63;101480.53;4996857;28;45484;-49
2023/04/07 08:07:10;;;;;;;;;12.00;10.50;;;;;24.68;33.87;101478.22;4979006;28;47352;-45
2023/04/07 08:09:35;;;;;;;;;14.25;11.00;;;;;25.11;33.80;101478.25;4996955;28;45444;-42
2023/04/07 08:12:01;;;;;;;;;15.00;12.25;;;;;25.61;31.66;101480.81;4997352;28;45439;-43
2023/04/07 08:14:26;;;;;;;;;12.75;9.75;;;;;26.06;31.37;101475.84;4997314;28;45245;-50
2023/04/07 08:16:51;;;;;;;;;15.50;11.00;;;;;26.50;30.99;101492.84;4996915;28;46179;-43
2023/04/07 08:19:17;;;;;;;;;16.25;11.00;;;;;26.97;29.72;101484.72;4995792;28;45427;-51
2023/04/07 08:21:42;;;;;;;;;11.00;10.25;;;;;27.46;29.75;101492.63;4996211;28;45333;-45
2023/04/07 08:24:09;;;;;;;;;20.50;14.00;;;;;27.68;30.24;101498.28;4997368;28;45421;-45
2023/04/07 08:26:34;;;;;;;;;15.25;12.75;;;;;27.88;28.26;101493.25;4996677;28;45484;-44
2023/04/07 08:28:59;;;;;;;;;16.50;12.00;;;;;28.22;27.16;101498.81;4996620;28;45355;-46
2023/04/07 08:31:25;;;;;;;;;13.50;13.50;;;;;28.38;26.83;101491.72;4996070;28;45501;-44
2023/04/07 08:33:56;;;;;;;;;14.50;11.50;;;;;28.07;27.58;101493.91;4996837;28;45326;-45
2023/04/07 08:36:21;;;;;;;;;13.00;11.40;;;;;27.54;27.94;101489.53;4996669;28;46190;-45
2023/04/07 08:38:47;;;;;;;;;15.75;12.75;;;;;26.99;28.53;101496.22;4996305;28;45448;-45
2023/04/07 08:41:18;;;;;;;;;12.75;12.75;;;;;26.81;29.12;101505.34;4996894;28;45362;-44
2023/04/07 08:43:45;;;;;;;;;13.80;10.40;;;;;26.61;29.24;101502.13;4997259;28;45333;-45
2023/04/07 08:46:12;;;;;;;;;13.00;11.60;;;;;26.49;29.37;101495.81;4996486;28;46194;-45
2023/04/07 08:48:38;;;;;;;;;14.60;12.80;;;;;26.45;29.23;101495.44;4999787;28;45413;-44
2023/04/07 08:51:07;;;;;;;;;14.00;13.00;;;;;26.36;29.89;101503.09;5000256;28;45287;-48
2023/04/07 08:53:42;;;;;;;;;11.60;10.20;;;;;26.48;29.86;101499.59;5000198;28;45571;-43
2023/04/07 08:56:10;;;;;;;;;20.40;14.40;;;;;26.74;29.60;101498.34;4999923;28;46394;-42
2023/04/07 08:58:36;;;;;;;;;64.33;48.67;;;;;27.02;28.57;101498.47;4999962;28;45477;-44
2023/04/07 09:01:04;;;;;;;;;26.80;21.80;;;;;27.36;28.47;101506.91;4982419;28;45357;-46
2023/04/07 09:03:31;;;;;;;;;10.40;10.40;;;;;27.55;29.56;101494.75;5000179;28;45577;-44
2023/04/07 09:05:58;;;;;;;;;14.40;12.80;;;;;27.81;28.18;101507.06;4999743;28;45297;-43
2023/04/07 09:08:24;;;;;;;;;13.20;10.00;;;;;28.14;27.74;101508.22;4999820;28;45415;-45
2023/04/07 09:10:50;;;;;;;;;10.75;9.50;;;;;28.56;26.61;101514.22;5000060;28;45447;-45
2023/04/07 09:13:15;;;;;;;;;10.50;10.00;;;;;29.31;26.01;101510.19;5000053;28;45527;-46
2023/04/07 09:15:41;;;;;;;;;8.00;8.00;;;;;30.93;23.81;101515.00;4999873;28;47050;-45
2023/04/07 09:18:06;;;;;;;;;10.00;10.00;;;;;33.00;22.25;101517.84;4999382;28;45455;-43
2023/04/07 09:20:56;;;;;;;;;12.50;12.50;;;;;33.64;21.32;101520.97;4999870;28;45295;-47
2023/04/07 09:23:29;;;;;;;;;8.80;8.60;;;;;35.32;19.98;101516.94;4999823;28;45483;-45
2023/04/07 09:25:54;;;;;;;;;10.40;9.00;;;;;36.53;18.79;101520.28;4999491;28;46204;-45
2023/04/07 09:28:21;;;;;;;;;10.00;8.25;;;;;37.56;17.55;101498.66;4999603;28;45325;-45
2023/04/07 09:30:54;;;;;;;;;9.40;8.40;;;;;38.56;17.57;101517.19;4999667;28;45472;-43
2023/04/07 09:33:27;;;;;;;;;14.20;11.80;;;;;39.45;16.39;101493.09;4999844;28;45623;-46
2023/04/07 09:35:53;;;;;;;;;10.20;8.20;;;;;40.11;14.91;101508.59;4999645;28;46436;-45
2023/04/07 09:38:18;;;;;;;;;14.60;11.60;;;;;39.72;15.92;101508.72;4999111;28;45219;-44
2023/04/07 09:40:44;;;;;;;;;7.75;7.00;;;;;40.30;15.74;101501.88;4999565;28;45285;-46
2023/04/07 09:43:15;;;;;;;;;10.00;8.00;;;;;40.56;14.96;101513.00;4999294;28;45452;-46
2023/04/07 09:45:41;;;;;;;;;10.00;8.60;;;;;40.77;13.80;101508.34;4999318;28;45376;-46
2023/04/07 09:48:20;;;;;;;;;11.00;8.25;;;;;41.36;13.75;101511.22;4999684;28;45482;-46
2023/04/07 09:50:50;;;;;;;;;9.40;9.40;;;;;42.18;13.16;101485.66;4999504;28;45357;-44
2023/04/07 09:53:17;;;;;;;;;5.20;5.20;;;;;42.27;13.36;101444.50;4999625;28;45327;-45
2023/04/07 09:55:43;;;;;;;;;7.80;7.60;;;;;40.75;14.31;101509.81;4999155;28;46204;-46
2023/04/07 09:58:15;;;;;;;;;8.00;6.75;;;;;40.20;14.52;101505.78;4996906;28;45435;-45
2023/04/07 10:00:41;;;;;;;;;6.20;5.40;;;;;40.87;13.02;101507.97;4998612;28;45421;-47
2023/04/07 10:03:06;;;;;;;;;7.25;6.00;;;;;40.90;13.55;101507.31;4999359;28;45421;-54
2023/04/07 10:05:34;;;;;;;;;8.00;6.00;;;;;38.66;14.95;101514.97;4998825;28;46922;-54
2023/04/07 10:08:01;;;;;;;;;10.40;6.60;;;;;40.34;13.79;101489.72;4998979;28;45417;-46
2023/04/07 10:10:27;;;;;;;;;5.80;4.40;;;;;41.71;12.93;101505.44;4998996;28;45458;-45
2023/04/07 10:12:53;;;;;;;;;5.60;5.60;;;;;38.65;14.80;101506.97;4999155;28;45361;-49
2023/04/07 10:15:19;;;;;;;;;9.00;6.00;;;;;36.04;16.18;101508.56;4999027;28;46223;-48
2023/04/07 10:17:49;;;;;;;;;5.25;5.25;;;;;33.27;18.01;101517.47;4998562;28;45405;-45
2023/04/07 10:20:19;;;;;;;;;4.80;4.80;;;;;30.86;20.02;101517.13;4998909;28;45302;-46
2023/04/07 10:22:47;;;;;;;;;6.80;4.20;;;;;28.91;22.30;101512.28;4999163;28;45463;-45
2023/04/07 10:25:15;;;;;;;;;4.80;4.80;;;;;27.35;23.00;101516.19;4998501;28;46238;-46
2023/04/07 10:27:51;;;;;;;;;3.60;3.00;;;;;26.07;24.01;101521.13;4998666;28;45444;-47
2023/04/07 10:30:23;;;;;;;;;5.40;3.00;;;;;27.31;23.20;101523.19;4998880;28;45219;-45
2023/04/07 10:32:52;;;;;;;;;6.00;2.80;;;;;26.20;23.77;101514.66;4998892;28;45278;-46
2023/04/07 10:35:17;;;;;;;;;5.60;5.00;;;;;25.05;25.32;101517.25;4998211;28;45382;-46
2023/04/07 10:38:15;;;;;;;;;6.25;5.25;;;;;24.47;26.23;101533.81;4998599;28;45243;-47
2023/04/07 10:40:41;;;;;;;;;6.20;4.40;;;;;27.30;23.70;101511.41;4998679;28;45879;-45
2023/04/07 10:43:10;;;;;;;;;5.80;4.00;;;;;28.73;22.27;101516.94;4998301;28;45600;-47
2023/04/07 10:45:47;;;;;;;;;7.60;5.00;;;;;27.63;23.23;101518.13;4997806;28;45341;-48
2023/04/07 10:48:14;;;;;;;;;4.40;4.00;;;;;26.84;23.32;101517.69;4998199;28;45457;-43
2023/04/07 10:50:41;;;;;;;;;4.80;4.80;;;;;25.79;23.93;101513.56;4998420;28;45405;-46
2023/04/07 10:53:13;;;;;;;;;4.60;3.00;;;;;24.91;24.89;101523.88;4998302;28;45456;-44
2023/04/07 10:55:39;;;;;;;;;3.60;3.60;;;;;24.07;26.06;101521.28;4998071;28;46055;-45
2023/04/07 10:58:24;;;;;;;;;5.80;4.00;;;;;23.29;26.72;101513.16;4997925;28;45417;-45
2023/04/07 11:01:11;;;;;;;;;3.60;3.40;;;;;27.69;23.23;101519.09;4997966;28;45363;-46
2023/04/07 11:03:37;;;;;;;;;5.20;5.20;;;;;28.22;22.31;101515.22;4998140;28;45523;-44
2023/04/07 11:06:03;;;;;;;;;4.00;4.00;;;;;26.95;23.28;101511.41;4997749;28;45381;-45
2023/04/07 11:08:35;;;;;;;;;4.40;4.40;;;;;25.88;24.10;101506.72;4998056;28;45221;-44
2023/04/07 11:11:02;;;;;;;;;6.60;5.80;;;;;25.12;25.20;101515.31;4997694;28;45542;-45
2023/04/07 11:13:27;;;;;;;;;4.20;4.20;;;;;24.26;26.29;101514.03;4998081;28;45575;-46
2023/04/07 11:15:53;;;;;;;;;5.50;4.75;;;;;25.81;25.08;101516.88;4997907;28;45615;-46
2023/04/07 11:18:22;;;;;;;;;3.75;3.75;;;;;27.81;23.31;101508.94;4997915;28;45246;-43
2023/04/07 11:20:57;;;;;;;;;5.80;4.00;;;;;26.78;23.84;101508.53;4979003;28;45393;-45